sensor_id;sensor_type;location;lat;lon;timestamp;pressure;altitude;pressure_sealevel;temperature;humidity
36980;BME280;22891;50.562;7.272;2022-09-09T00:01:42;99784.00;;;16.45;nan
36980;BME280;22891;50.562;7.272;2022-09-09T00:09:19;99782.00;;;16.18;nan
36980;BME280;22891;50.562;7.272;2022-09-09T00:12:11;99775.00;;;16.27;nan
36980;BME280;22891;50.562;7.272;2022-09-09T00:14:51;99770.00;;;16.33;nan
36980;BME280;22891;50.562;7.272;2022-09-09T00:17:38;99772.00;;;16.31;nan
36980;BME280;22891;50.562;7.272;2022-09-09T00:20:35;99779.00;;;16.20;nan
36980;BME280;22891;50.562;7.272;2022-09-09T00:23:12;99789.00;;;16.19;nan
36980;BME280;22891;50.562;7.272;2022-09-09T00:25:58;99781.00;;;16.24;nan
36980;BME280;22891;50.562;7.272;2022-09-09T00:28:28;99770.00;;;16.24;nan
36980;BME280;22891;50.562;7.272;2022-09-09T00:31:07;99759.00;;;16.12;nan
36980;BME280;22891;50.562;7.272;2022-09-09T00:33:38;99753.00;;;16.01;nan
36980;BME280;22891;50.562;7.272;2022-09-09T00:36:12;99740.00;;;16.04;nan
36980;BME280;22891;50.562;7.272;2022-09-09T00:38:43;99730.00;;;16.03;nan
36980;BME280;22891;50.562;7.272;2022-09-09T00:42:44;99723.00;;;16.02;nan
36980;BME280;22891;50.562;7.272;2022-09-09T00:51:15;99734.00;;;15.87;nan
36980;BME280;22891;50.562;7.272;2022-09-09T00:58:50;99744.00;;;15.92;nan
36980;BME280;22891;50.562;7.272;2022-09-09T01:01:17;99763.00;;;15.90;nan
36980;BME280;22891;50.562;7.272;2022-09-09T02:00:10;99752.00;;;15.82;nan
36980;BME280;22891;50.562;7.272;2022-09-09T02:03:04;99749.00;;;15.82;nan
36980;BME280;22891;50.562;7.272;2022-09-09T02:05:40;99738.00;;;15.91;nan
36980;BME280;22891;50.562;7.272;2022-09-09T02:08:15;99745.00;;;15.92;nan
36980;BME280;22891;50.562;7.272;2022-09-09T02:11:07;99748.00;;;15.91;nan
36980;BME280;22891;50.562;7.272;2022-09-09T02:13:38;99747.00;;;15.90;nan
36980;BME280;22891;50.562;7.272;2022-09-09T02:17:08;99758.00;;;15.90;nan
36980;BME280;22891;50.562;7.272;2022-09-09T02:19:50;99777.00;;;15.92;nan
36980;BME280;22891;50.562;7.272;2022-09-09T02:22:22;99774.00;;;15.91;nan
36980;BME280;22891;50.562;7.272;2022-09-09T02:24:50;99768.00;;;15.96;nan
36980;BME280;22891;50.562;7.272;2022-09-09T02:27:20;99759.00;;;15.88;nan
36980;BME280;22891;50.562;7.272;2022-09-09T02:29:47;99766.00;;;15.78;nan
36980;BME280;22891;50.562;7.272;2022-09-09T02:32:20;99749.00;;;15.82;nan
36980;BME280;22891;50.562;7.272;2022-09-09T02:34:55;99761.00;;;15.92;nan
36980;BME280;22891;50.562;7.272;2022-09-09T02:37:23;99776.00;;;15.95;nan
36980;BME280;22891;50.562;7.272;2022-09-09T02:39:54;99777.00;;;15.83;nan
36980;BME280;22891;50.562;7.272;2022-09-09T02:42:21;99765.00;;;15.92;nan
36980;BME280;22891;50.562;7.272;2022-09-09T02:44:48;99770.00;;;15.91;nan
36980;BME280;22891;50.562;7.272;2022-09-09T02:48:47;99770.00;;;15.87;nan
36980;BME280;22891;50.562;7.272;2022-09-09T02:51:27;99776.00;;;15.92;nan
36980;BME280;22891;50.562;7.272;2022-09-09T02:57:08;99771.00;;;15.90;nan
36980;BME280;22891;50.562;7.272;2022-09-09T02:59:37;99771.00;;;15.86;nan
36980;BME280;22891;50.562;7.272;2022-09-09T03:02:04;99761.00;;;15.96;nan
36980;BME280;22891;50.562;7.272;2022-09-09T03:04:30;99760.00;;;16.02;nan
36980;BME280;22891;50.562;7.272;2022-09-09T03:06:57;99754.00;;;16.01;nan
36980;BME280;22891;50.562;7.272;2022-09-09T03:09:23;99754.00;;;16.00;nan
36980;BME280;22891;50.562;7.272;2022-09-09T03:11:51;99750.00;;;16.15;nan
36980;BME280;22891;50.562;7.272;2022-09-09T03:14:17;99738.00;;;16.01;nan
36980;BME280;22891;50.562;7.272;2022-09-09T03:16:47;99737.00;;;15.97;nan
36980;BME280;22891;50.562;7.272;2022-09-09T03:24:13;99743.00;;;15.94;nan
36980;BME280;22891;50.562;7.272;2022-09-09T03:26:40;99742.00;;;15.84;nan
36980;BME280;22891;50.562;7.272;2022-09-09T03:29:07;99750.00;;;15.89;nan
36980;BME280;22891;50.562;7.272;2022-09-09T03:48:24;99806.00;;;15.84;nan
36980;BME280;22891;50.562;7.272;2022-09-09T03:50:52;99803.00;;;15.81;nan
36980;BME280;22891;50.562;7.272;2022-09-09T03:53:20;99795.00;;;15.87;nan
36980;BME280;22891;50.562;7.272;2022-09-09T03:55:49;99799.00;;;15.83;nan
36980;BME280;22891;50.562;7.272;2022-09-09T03:58:16;99792.00;;;15.90;nan
36980;BME280;22891;50.562;7.272;2022-09-09T04:00:54;99802.00;;;15.82;nan
36980;BME280;22891;50.562;7.272;2022-09-09T04:03:20;99799.00;;;15.85;nan
36980;BME280;22891;50.562;7.272;2022-09-09T04:05:48;99808.00;;;15.92;nan
36980;BME280;22891;50.562;7.272;2022-09-09T04:08:15;99822.00;;;15.91;nan
36980;BME280;22891;50.562;7.272;2022-09-09T04:10:41;99831.00;;;15.87;nan
36980;BME280;22891;50.562;7.272;2022-09-09T04:13:08;99850.00;;;15.97;nan
36980;BME280;22891;50.562;7.272;2022-09-09T04:15:33;99842.00;;;15.90;nan
36980;BME280;22891;50.562;7.272;2022-09-09T04:18:07;99852.00;;;15.84;nan
36980;BME280;22891;50.562;7.272;2022-09-09T04:20:33;99848.00;;;15.78;nan
36980;BME280;22891;50.562;7.272;2022-09-09T04:22:59;99844.00;;;15.78;nan
36980;BME280;22891;50.562;7.272;2022-09-09T04:25:25;99850.00;;;15.72;nan
36980;BME280;22891;50.562;7.272;2022-09-09T04:27:55;99848.00;;;15.65;nan
36980;BME280;22891;50.562;7.272;2022-09-09T04:30:23;99858.00;;;15.71;nan
36980;BME280;22891;50.562;7.272;2022-09-09T04:32:48;99861.00;;;15.73;nan
36980;BME280;22891;50.562;7.272;2022-09-09T04:35:14;99851.00;;;15.70;nan
36980;BME280;22891;50.562;7.272;2022-09-09T04:37:40;99839.00;;;15.71;nan
36980;BME280;22891;50.562;7.272;2022-09-09T04:40:08;99843.00;;;15.81;nan
36980;BME280;22891;50.562;7.272;2022-09-09T04:42:38;99857.00;;;15.86;nan
36980;BME280;22891;50.562;7.272;2022-09-09T04:45:06;99848.00;;;15.71;nan
36980;BME280;22891;50.562;7.272;2022-09-09T04:47:36;99848.00;;;15.68;nan
36980;BME280;22891;50.562;7.272;2022-09-09T04:50:02;99856.00;;;15.70;nan
36980;BME280;22891;50.562;7.272;2022-09-09T04:52:28;99847.00;;;15.71;nan
36980;BME280;22891;50.562;7.272;2022-09-09T04:54:54;99853.00;;;15.71;nan
36980;BME280;22891;50.562;7.272;2022-09-09T04:57:20;99863.00;;;15.68;nan
36980;BME280;22891;50.562;7.272;2022-09-09T04:59:46;99873.00;;;15.67;nan
36980;BME280;22891;50.562;7.272;2022-09-09T05:02:13;99865.00;;;15.64;nan
36980;BME280;22891;50.562;7.272;2022-09-09T05:04:40;99853.00;;;15.65;nan
36980;BME280;22891;50.562;7.272;2022-09-09T05:07:06;99849.00;;;15.56;nan
36980;BME280;22891;50.562;7.272;2022-09-09T05:09:32;99849.00;;;15.55;nan
36980;BME280;22891;50.562;7.272;2022-09-09T05:11:58;99862.00;;;15.54;nan
36980;BME280;22891;50.562;7.272;2022-09-09T05:14:25;99865.00;;;15.62;nan
36980;BME280;22891;50.562;7.272;2022-09-09T05:16:52;99874.00;;;15.71;nan
36980;BME280;22891;50.562;7.272;2022-09-09T05:19:17;99883.00;;;15.79;nan
36980;BME280;22891;50.562;7.272;2022-09-09T05:21:45;99891.00;;;15.76;nan
36980;BME280;22891;50.562;7.272;2022-09-09T05:24:11;99894.00;;;15.77;nan
36980;BME280;22891;50.562;7.272;2022-09-09T05:26:37;99893.00;;;15.86;nan
36980;BME280;22891;50.562;7.272;2022-09-09T05:29:03;99886.00;;;15.91;nan
36980;BME280;22891;50.562;7.272;2022-09-09T05:31:30;99899.00;;;15.93;nan
36980;BME280;22891;50.562;7.272;2022-09-09T05:33:56;99904.00;;;15.89;nan
36980;BME280;22891;50.562;7.272;2022-09-09T05:36:22;99905.00;;;15.93;nan
36980;BME280;22891;50.562;7.272;2022-09-09T05:38:48;99907.00;;;15.91;nan
36980;BME280;22891;50.562;7.272;2022-09-09T05:41:16;99910.00;;;15.88;nan
36980;BME280;22891;50.562;7.272;2022-09-09T05:43:43;99918.00;;;15.94;nan
36980;BME280;22891;50.562;7.272;2022-09-09T05:46:19;99919.00;;;15.95;nan
36980;BME280;22891;50.562;7.272;2022-09-09T05:48:46;99915.00;;;16.03;nan
36980;BME280;22891;50.562;7.272;2022-09-09T05:51:14;99921.00;;;16.03;nan
36980;BME280;22891;50.562;7.272;2022-09-09T05:53:42;99921.00;;;16.00;nan
36980;BME280;22891;50.562;7.272;2022-09-09T05:56:15;99933.00;;;16.13;nan
36980;BME280;22891;50.562;7.272;2022-09-09T05:58:41;99933.00;;;16.19;nan
36980;BME280;22891;50.562;7.272;2022-09-09T06:01:11;99942.00;;;16.37;nan
36980;BME280;22891;50.562;7.272;2022-09-09T06:03:39;99952.00;;;16.38;nan
36980;BME280;22891;50.562;7.272;2022-09-09T06:06:08;99956.00;;;16.28;nan
36980;BME280;22891;50.562;7.272;2022-09-09T06:08:36;99954.00;;;16.23;nan
36980;BME280;22891;50.562;7.272;2022-09-09T06:11:13;99944.00;;;16.27;nan
36980;BME280;22891;50.562;7.272;2022-09-09T06:13:48;99958.00;;;16.29;nan
36980;BME280;22891;50.562;7.272;2022-09-09T06:16:21;99971.00;;;16.37;nan
36980;BME280;22891;50.562;7.272;2022-09-09T06:18:52;99975.00;;;16.46;nan
36980;BME280;22891;50.562;7.272;2022-09-09T06:21:20;99978.00;;;16.77;nan
36980;BME280;22891;50.562;7.272;2022-09-09T06:23:47;99994.00;;;16.96;nan
36980;BME280;22891;50.562;7.272;2022-09-09T06:26:19;100034.00;;;17.27;nan
36980;BME280;22891;50.562;7.272;2022-09-09T06:28:47;100084.00;;;17.55;nan
36980;BME280;22891;50.562;7.272;2022-09-09T06:31:16;100094.00;;;17.18;nan
36980;BME280;22891;50.562;7.272;2022-09-09T06:33:49;100103.00;;;17.35;nan
36980;BME280;22891;50.562;7.272;2022-09-09T06:36:26;100120.00;;;17.76;nan
36980;BME280;22891;50.562;7.272;2022-09-09T06:38:53;100143.00;;;18.17;nan
36980;BME280;22891;50.562;7.272;2022-09-09T06:41:21;100174.00;;;18.40;nan
36980;BME280;22891;50.562;7.272;2022-09-09T06:43:48;100215.00;;;18.77;nan
36980;BME280;22891;50.562;7.272;2022-09-09T06:46:16;100242.00;;;18.97;nan
36980;BME280;22891;50.562;7.272;2022-09-09T06:48:43;100258.00;;;19.10;nan
36980;BME280;22891;50.562;7.272;2022-09-09T06:51:15;100285.00;;;19.00;nan
36980;BME280;22891;50.562;7.272;2022-09-09T06:53:44;100308.00;;;19.14;nan
36980;BME280;22891;50.562;7.272;2022-09-09T06:56:34;100324.00;;;19.47;nan
36980;BME280;22891;50.562;7.272;2022-09-09T06:59:03;100326.00;;;19.51;nan
36980;BME280;22891;50.562;7.272;2022-09-09T07:01:34;100348.00;;;19.88;nan
36980;BME280;22891;50.562;7.272;2022-09-09T07:04:00;100351.00;;;19.89;nan
36980;BME280;22891;50.562;7.272;2022-09-09T07:06:32;100373.00;;;20.29;nan
36980;BME280;22891;50.562;7.272;2022-09-09T07:09:02;100376.00;;;20.21;nan
36980;BME280;22891;50.562;7.272;2022-09-09T07:11:32;100394.00;;;19.86;nan
36980;BME280;22891;50.562;7.272;2022-09-09T07:14:00;100388.00;;;20.09;nan
36980;BME280;22891;50.562;7.272;2022-09-09T07:16:28;100405.00;;;19.80;nan
36980;BME280;22891;50.562;7.272;2022-09-09T07:18:55;100406.00;;;20.14;nan
36980;BME280;22891;50.562;7.272;2022-09-09T07:21:25;100403.00;;;20.44;nan
36980;BME280;22891;50.562;7.272;2022-09-09T07:23:54;100409.00;;;21.04;nan
36980;BME280;22891;50.562;7.272;2022-09-09T07:26:23;100403.00;;;21.13;nan
36980;BME280;22891;50.562;7.272;2022-09-09T07:28:49;100407.00;;;20.86;nan
36980;BME280;22891;50.562;7.272;2022-09-09T07:31:21;100421.00;;;21.33;nan
36980;BME280;22891;50.562;7.272;2022-09-09T07:33:48;100424.00;;;20.90;nan
36980;BME280;22891;50.562;7.272;2022-09-09T07:36:18;100427.00;;;20.98;nan
36980;BME280;22891;50.562;7.272;2022-09-09T07:38:50;100426.00;;;20.78;nan
36980;BME280;22891;50.562;7.272;2022-09-09T07:42:02;100433.00;;;21.31;nan
36980;BME280;22891;50.562;7.272;2022-09-09T07:44:29;100442.00;;;20.61;nan
36980;BME280;22891;50.562;7.272;2022-09-09T07:46:57;100451.00;;;20.69;nan
36980;BME280;22891;50.562;7.272;2022-09-09T07:49:23;100446.00;;;20.97;nan
36980;BME280;22891;50.562;7.272;2022-09-09T07:51:49;100441.00;;;20.38;nan
36980;BME280;22891;50.562;7.272;2022-09-09T07:54:17;100448.00;;;20.33;nan
36980;BME280;22891;50.562;7.272;2022-09-09T07:56:49;100444.00;;;21.08;nan
36980;BME280;22891;50.562;7.272;2022-09-09T07:59:15;100453.00;;;21.40;nan
36980;BME280;22891;50.562;7.272;2022-09-09T08:01:47;100451.00;;;22.02;nan
36980;BME280;22891;50.562;7.272;2022-09-09T08:04:23;100453.00;;;22.35;nan
36980;BME280;22891;50.562;7.272;2022-09-09T08:06:52;100455.00;;;22.36;nan
36980;BME280;22891;50.562;7.272;2022-09-09T08:09:19;100452.00;;;22.67;nan
36980;BME280;22891;50.562;7.272;2022-09-09T08:11:46;100453.00;;;22.35;nan
36980;BME280;22891;50.562;7.272;2022-09-09T08:14:13;100469.00;;;20.89;nan
36980;BME280;22891;50.562;7.272;2022-09-09T08:16:46;100462.00;;;19.99;nan
36980;BME280;22891;50.562;7.272;2022-09-09T08:19:12;100470.00;;;20.54;nan
36980;BME280;22891;50.562;7.272;2022-09-09T08:21:41;100468.00;;;21.20;nan
36980;BME280;22891;50.562;7.272;2022-09-09T08:24:09;100458.00;;;22.22;nan
36980;BME280;22891;50.562;7.272;2022-09-09T08:26:38;100465.00;;;21.95;nan
36980;BME280;22891;50.562;7.272;2022-09-09T08:29:06;100466.00;;;20.89;nan
36980;BME280;22891;50.562;7.272;2022-09-09T08:31:38;100459.00;;;21.13;nan
36980;BME280;22891;50.562;7.272;2022-09-09T08:34:14;100470.00;;;20.23;nan
36980;BME280;22891;50.562;7.272;2022-09-09T08:36:44;100443.00;;;21.96;nan
36980;BME280;22891;50.562;7.272;2022-09-09T08:39:12;100475.00;;;22.88;nan
36980;BME280;22891;50.562;7.272;2022-09-09T08:48:48;100457.00;;;23.56;nan
36980;BME280;22891;50.562;7.272;2022-09-09T08:51:18;100478.00;;;22.53;nan
36980;BME280;22891;50.562;7.272;2022-09-09T08:53:48;100471.00;;;21.82;nan
36980;BME280;22891;50.562;7.272;2022-09-09T08:56:19;100487.00;;;20.78;nan
36980;BME280;22891;50.562;7.272;2022-09-09T08:58:51;100488.00;;;21.45;nan
36980;BME280;22891;50.562;7.272;2022-09-09T09:01:40;100496.00;;;21.76;nan
36980;BME280;22891;50.562;7.272;2022-09-09T09:04:21;100495.00;;;21.07;nan
36980;BME280;22891;50.562;7.272;2022-09-09T09:07:15;100496.00;;;20.62;nan
36980;BME280;22891;50.562;7.272;2022-09-09T09:12:53;100495.00;;;22.27;nan
36980;BME280;22891;50.562;7.272;2022-09-09T09:15:23;100491.00;;;21.31;nan
36980;BME280;22891;50.562;7.272;2022-09-09T09:17:49;100494.00;;;21.24;nan
36980;BME280;22891;50.562;7.272;2022-09-09T09:20:16;100486.00;;;21.03;nan
36980;BME280;22891;50.562;7.272;2022-09-09T09:22:52;100484.00;;;21.00;nan
36980;BME280;22891;50.562;7.272;2022-09-09T09:25:23;100495.00;;;20.81;nan
36980;BME280;22891;50.562;7.272;2022-09-09T09:31:25;100493.00;;;20.86;nan
36980;BME280;22891;50.562;7.272;2022-09-09T09:33:53;100490.00;;;23.66;nan
36980;BME280;22891;50.562;7.272;2022-09-09T09:36:32;100489.00;;;22.47;nan
36980;BME280;22891;50.562;7.272;2022-09-09T09:39:00;100485.00;;;21.58;nan
36980;BME280;22891;50.562;7.272;2022-09-09T09:41:36;100493.00;;;20.89;nan
36980;BME280;22891;50.562;7.272;2022-09-09T09:44:05;100489.00;;;20.48;nan
36980;BME280;22891;50.562;7.272;2022-09-09T09:46:33;100498.00;;;20.42;nan
36980;BME280;22891;50.562;7.272;2022-09-09T09:49:05;100497.00;;;20.23;nan
36980;BME280;22891;50.562;7.272;2022-09-09T09:51:34;100491.00;;;20.07;nan
36980;BME280;22891;50.562;7.272;2022-09-09T09:54:18;100489.00;;;20.19;nan
36980;BME280;22891;50.562;7.272;2022-09-09T09:56:47;100483.00;;;20.35;nan
36980;BME280;22891;50.562;7.272;2022-09-09T09:59:33;100490.00;;;20.16;nan
36980;BME280;22891;50.562;7.272;2022-09-09T10:02:20;100492.00;;;19.91;nan
36980;BME280;22891;50.562;7.272;2022-09-09T10:04:48;100485.00;;;19.85;nan
36980;BME280;22891;50.562;7.272;2022-09-09T10:07:21;100486.00;;;19.81;nan
36980;BME280;22891;50.562;7.272;2022-09-09T10:09:57;100480.00;;;19.94;nan
36980;BME280;22891;50.562;7.272;2022-09-09T10:27:20;100491.00;;;19.84;nan
36980;BME280;22891;50.562;7.272;2022-09-09T10:30:24;100502.00;;;19.87;nan
36980;BME280;22891;50.562;7.272;2022-09-09T10:40:59;100503.00;;;19.78;nan
36980;BME280;22891;50.562;7.272;2022-09-09T10:45:09;100497.00;;;21.07;nan
36980;BME280;22891;50.562;7.272;2022-09-09T10:54:42;100470.00;;;21.24;nan
36980;BME280;22891;50.562;7.272;2022-09-09T10:58:13;100469.00;;;22.19;nan
36980;BME280;22891;50.562;7.272;2022-09-09T11:00:51;100465.00;;;22.10;nan
36980;BME280;22891;50.562;7.272;2022-09-09T11:03:57;100457.00;;;21.85;nan
36980;BME280;22891;50.562;7.272;2022-09-09T11:06:32;100458.00;;;21.30;nan
36980;BME280;22891;50.562;7.272;2022-09-09T11:09:02;100460.00;;;21.05;nan
36980;BME280;22891;50.562;7.272;2022-09-09T11:11:49;100458.00;;;21.01;nan
36980;BME280;22891;50.562;7.272;2022-09-09T11:14:35;100463.00;;;20.78;nan
36980;BME280;22891;50.562;7.272;2022-09-09T11:17:06;100450.00;;;20.99;nan
36980;BME280;22891;50.562;7.272;2022-09-09T11:19:44;100453.00;;;21.19;nan
36980;BME280;22891;50.562;7.272;2022-09-09T11:23:46;100460.00;;;20.86;nan
36980;BME280;22891;50.562;7.272;2022-09-09T11:26:25;100462.00;;;20.84;nan
36980;BME280;22891;50.562;7.272;2022-09-09T11:41:17;100472.00;;;20.10;nan
36980;BME280;22891;50.562;7.272;2022-09-09T11:43:48;100473.00;;;19.67;nan
36980;BME280;22891;50.562;7.272;2022-09-09T11:46:31;100472.00;;;19.88;nan
36980;BME280;22891;50.562;7.272;2022-09-09T11:49:05;100472.00;;;20.28;nan
36980;BME280;22891;50.562;7.272;2022-09-09T11:51:33;100466.00;;;20.73;nan
36980;BME280;22891;50.562;7.272;2022-09-09T11:54:25;100462.00;;;20.97;nan
36980;BME280;22891;50.562;7.272;2022-09-09T11:56:54;100460.00;;;21.56;nan
36980;BME280;22891;50.562;7.272;2022-09-09T11:59:30;100462.00;;;23.04;nan
36980;BME280;22891;50.562;7.272;2022-09-09T12:02:00;100448.00;;;23.07;nan
36980;BME280;22891;50.562;7.272;2022-09-09T12:04:49;100446.00;;;23.56;nan
36980;BME280;22891;50.562;7.272;2022-09-09T12:09:18;100442.00;;;23.94;nan
36980;BME280;22891;50.562;7.272;2022-09-09T12:11:44;100435.00;;;23.45;nan
36980;BME280;22891;50.562;7.272;2022-09-09T12:14:54;100434.00;;;23.41;nan
36980;BME280;22891;50.562;7.272;2022-09-09T12:17:22;100417.00;;;23.51;nan
36980;BME280;22891;50.562;7.272;2022-09-09T12:20:04;100420.00;;;23.86;nan
36980;BME280;22891;50.562;7.272;2022-09-09T12:26:33;100427.00;;;23.66;nan
36980;BME280;22891;50.562;7.272;2022-09-09T12:29:27;100423.00;;;23.11;nan
36980;BME280;22891;50.562;7.272;2022-09-09T12:32:14;100424.00;;;22.89;nan
36980;BME280;22891;50.562;7.272;2022-09-09T12:35:17;100429.00;;;22.17;nan
36980;BME280;22891;50.562;7.272;2022-09-09T12:38:02;100433.00;;;22.03;nan
36980;BME280;22891;50.562;7.272;2022-09-09T12:40:31;100418.00;;;21.66;nan
36980;BME280;22891;50.562;7.272;2022-09-09T12:43:01;100431.00;;;21.66;nan
36980;BME280;22891;50.562;7.272;2022-09-09T12:45:30;100419.00;;;21.75;nan
36980;BME280;22891;50.562;7.272;2022-09-09T12:48:07;100423.00;;;21.55;nan
36980;BME280;22891;50.562;7.272;2022-09-09T12:50:46;100412.00;;;21.38;nan
36980;BME280;22891;50.562;7.272;2022-09-09T12:53:24;100416.00;;;21.39;nan
36980;BME280;22891;50.562;7.272;2022-09-09T12:55:58;100406.00;;;21.44;nan
36980;BME280;22891;50.562;7.272;2022-09-09T12:58:25;100412.00;;;21.67;nan
36980;BME280;22891;50.562;7.272;2022-09-09T13:00:55;100405.00;;;21.72;nan
36980;BME280;22891;50.562;7.272;2022-09-09T13:03:24;100409.00;;;21.49;nan
36980;BME280;22891;50.562;7.272;2022-09-09T13:05:57;100398.00;;;21.28;nan
36980;BME280;22891;50.562;7.272;2022-09-09T13:08:26;100397.00;;;21.48;nan
36980;BME280;22891;50.562;7.272;2022-09-09T13:11:11;100389.00;;;21.47;nan
36980;BME280;22891;50.562;7.272;2022-09-09T13:13:42;100395.00;;;21.47;nan
36980;BME280;22891;50.562;7.272;2022-09-09T13:18:01;100386.00;;;21.39;nan
36980;BME280;22891;50.562;7.272;2022-09-09T13:20:29;100379.00;;;21.37;nan
36980;BME280;22891;50.562;7.272;2022-09-09T13:22:57;100384.00;;;21.34;nan
36980;BME280;22891;50.562;7.272;2022-09-09T13:25:28;100378.00;;;21.01;nan
36980;BME280;22891;50.562;7.272;2022-09-09T13:28:03;100379.00;;;21.14;nan
36980;BME280;22891;50.562;7.272;2022-09-09T13:30:36;100370.00;;;20.86;nan
36980;BME280;22891;50.562;7.272;2022-09-09T13:33:28;100375.00;;;20.76;nan
36980;BME280;22891;50.562;7.272;2022-09-09T13:35:57;100366.00;;;20.85;nan
36980;BME280;22891;50.562;7.272;2022-09-09T13:38:24;100372.00;;;20.90;nan
36980;BME280;22891;50.562;7.272;2022-09-09T13:41:10;100371.00;;;20.77;nan
36980;BME280;22891;50.562;7.272;2022-09-09T13:43:42;100379.00;;;20.67;nan
36980;BME280;22891;50.562;7.272;2022-09-09T13:46:37;100407.00;;;20.37;nan
36980;BME280;22891;50.562;7.272;2022-09-09T13:49:23;100416.00;;;20.02;nan
36980;BME280;22891;50.562;7.272;2022-09-09T13:52:04;100389.00;;;19.90;nan
36980;BME280;22891;50.562;7.272;2022-09-09T13:54:31;100400.00;;;19.98;nan
36980;BME280;22891;50.562;7.272;2022-09-09T13:56:57;100387.00;;;20.08;nan
36980;BME280;22891;50.562;7.272;2022-09-09T13:59:22;100383.00;;;20.22;nan
36980;BME280;22891;50.562;7.272;2022-09-09T14:01:50;100388.00;;;19.94;nan
36980;BME280;22891;50.562;7.272;2022-09-09T14:04:19;100388.00;;;19.88;nan
36980;BME280;22891;50.562;7.272;2022-09-09T14:06:49;100385.00;;;19.97;nan
36980;BME280;22891;50.562;7.272;2022-09-09T14:09:17;100380.00;;;19.98;nan
36980;BME280;22891;50.562;7.272;2022-09-09T14:11:44;100387.00;;;20.00;nan
36980;BME280;22891;50.562;7.272;2022-09-09T14:14:13;100383.00;;;19.83;nan
36980;BME280;22891;50.562;7.272;2022-09-09T14:16:39;100386.00;;;19.33;nan
36980;BME280;22891;50.562;7.272;2022-09-09T14:19:05;100383.00;;;19.25;nan
36980;BME280;22891;50.562;7.272;2022-09-09T14:21:30;100385.00;;;19.26;nan
36980;BME280;22891;50.562;7.272;2022-09-09T14:23:57;100388.00;;;19.41;nan
36980;BME280;22891;50.562;7.272;2022-09-09T14:26:23;100385.00;;;19.71;nan
36980;BME280;22891;50.562;7.272;2022-09-09T14:28:50;100389.00;;;19.74;nan
36980;BME280;22891;50.562;7.272;2022-09-09T14:31:17;100398.00;;;19.50;nan
36980;BME280;22891;50.562;7.272;2022-09-09T14:33:44;100392.00;;;19.58;nan
36980;BME280;22891;50.562;7.272;2022-09-09T14:36:10;100398.00;;;19.86;nan
36980;BME280;22891;50.562;7.272;2022-09-09T14:38:37;100409.00;;;19.76;nan
36980;BME280;22891;50.562;7.272;2022-09-09T14:41:09;100405.00;;;19.44;nan
36980;BME280;22891;50.562;7.272;2022-09-09T14:43:38;100410.00;;;19.22;nan
36980;BME280;22891;50.562;7.272;2022-09-09T14:46:09;100404.00;;;19.14;nan
36980;BME280;22891;50.562;7.272;2022-09-09T14:48:36;100401.00;;;19.24;nan
36980;BME280;22891;50.562;7.272;2022-09-09T14:51:14;100404.00;;;18.93;nan
36980;BME280;22891;50.562;7.272;2022-09-09T14:53:41;100393.00;;;19.09;nan
36980;BME280;22891;50.562;7.272;2022-09-09T14:56:14;100396.00;;;19.26;nan
36980;BME280;22891;50.562;7.272;2022-09-09T14:58:41;100390.00;;;19.51;nan
36980;BME280;22891;50.562;7.272;2022-09-09T15:01:11;100389.00;;;19.36;nan
36980;BME280;22891;50.562;7.272;2022-09-09T15:03:38;100392.00;;;19.40;nan
36980;BME280;22891;50.562;7.272;2022-09-09T15:06:10;100394.00;;;19.44;nan
36980;BME280;22891;50.562;7.272;2022-09-09T15:08:37;100390.00;;;19.51;nan
36980;BME280;22891;50.562;7.272;2022-09-09T15:11:05;100384.00;;;19.71;nan
36980;BME280;22891;50.562;7.272;2022-09-09T15:13:34;100392.00;;;19.69;nan
36980;BME280;22891;50.562;7.272;2022-09-09T15:16:05;100386.00;;;19.72;nan
36980;BME280;22891;50.562;7.272;2022-09-09T15:18:32;100386.00;;;19.55;nan
36980;BME280;22891;50.562;7.272;2022-09-09T15:20:59;100381.00;;;19.38;nan
36980;BME280;22891;50.562;7.272;2022-09-09T15:23:27;100380.00;;;19.00;nan
36980;BME280;22891;50.562;7.272;2022-09-09T15:25:54;100381.00;;;19.14;nan
36980;BME280;22891;50.562;7.272;2022-09-09T15:28:21;100381.00;;;19.14;nan
36980;BME280;22891;50.562;7.272;2022-09-09T15:30:50;100392.00;;;19.27;nan
36980;BME280;22891;50.562;7.272;2022-09-09T15:33:18;100391.00;;;19.39;nan
36980;BME280;22891;50.562;7.272;2022-09-09T15:35:44;100392.00;;;19.59;nan
36980;BME280;22891;50.562;7.272;2022-09-09T15:38:11;100397.00;;;19.52;nan
36980;BME280;22891;50.562;7.272;2022-09-09T15:40:39;100391.00;;;19.41;nan
36980;BME280;22891;50.562;7.272;2022-09-09T15:43:07;100395.00;;;19.43;nan
36980;BME280;22891;50.562;7.272;2022-09-09T15:45:35;100387.00;;;19.40;nan
36980;BME280;22891;50.562;7.272;2022-09-09T15:48:02;100389.00;;;19.35;nan
36980;BME280;22891;50.562;7.272;2022-09-09T15:50:28;100384.00;;;19.38;nan
36980;BME280;22891;50.562;7.272;2022-09-09T15:52:56;100377.00;;;19.00;nan
36980;BME280;22891;50.562;7.272;2022-09-09T15:55:22;100365.00;;;18.88;nan
36980;BME280;22891;50.562;7.272;2022-09-09T15:57:50;100374.00;;;18.59;nan
36980;BME280;22891;50.562;7.272;2022-09-09T16:00:19;100360.00;;;18.50;nan
36980;BME280;22891;50.562;7.272;2022-09-09T16:02:46;100366.00;;;18.56;nan
36980;BME280;22891;50.562;7.272;2022-09-09T16:05:12;100375.00;;;18.42;nan
36980;BME280;22891;50.562;7.272;2022-09-09T16:07:38;100374.00;;;18.44;nan
36980;BME280;22891;50.562;7.272;2022-09-09T16:10:05;100371.00;;;18.26;nan
36980;BME280;22891;50.562;7.272;2022-09-09T16:12:31;100340.00;;;18.10;nan
36980;BME280;22891;50.562;7.272;2022-09-09T16:14:58;100289.00;;;18.12;nan
36980;BME280;22891;50.562;7.272;2022-09-09T16:17:24;100288.00;;;18.29;nan
36980;BME280;22891;50.562;7.272;2022-09-09T16:19:51;100257.00;;;18.41;nan
36980;BME280;22891;50.562;7.272;2022-09-09T16:22:16;100232.00;;;18.29;nan
36980;BME280;22891;50.562;7.272;2022-09-09T16:24:43;100221.00;;;18.45;nan
36980;BME280;22891;50.562;7.272;2022-09-09T16:27:10;100186.00;;;18.14;nan